Time;durP1;ratioP1;P1;durP2;ratioP2;P2;SDS_P1;SDS_P2;PMS_P1;PMS_P2;Temp;Humidity;BMP_temperature;BMP_pressure;BME280_temperature;BME280_humidity;BME280_pressure;Samples;Min_cycle;Max_cycle;Signal;HPM_P1;HPM_P2
2023/01/17 00:01:16;;;;;;;;;;;;;;;27.92;72.33;101142.00;5076970;27;70359;-37
2023/01/17 00:12:12;;;;;;;;;;;;;;;28.01;72.32;101157.00;5071680;27;70250;-38
2023/01/17 00:14:43;;;;;;;;;;;;;;;27.93;72.61;101154.44;5087921;27;64244;-41
2023/01/17 00:17:14;;;;;;;;;;;;;;;27.99;73.58;101159.06;5075628;27;69982;-39
2023/01/17 01:34:18;;;;;;;;;;;;;;;28.38;69.58;101237.81;5084000;27;70776;-38
2023/01/17 01:36:48;;;;;;;;;;;;;;;28.39;69.81;101243.03;5084227;27;66579;-39
2023/01/17 01:39:19;;;;;;;;;;;;;;;28.40;69.81;101236.59;5086386;27;69875;-41
2023/01/17 01:41:50;;;;;;;;;;;;;;;28.41;69.66;101237.44;5082775;27;66395;-42
2023/01/17 01:44:39;;;;;;;;;;;;;;;28.41;69.30;101249.06;5064737;27;69781;-39
2023/01/17 01:47:15;;;;;;;;;;;;;;;28.43;69.43;101246.22;5087801;27;66517;-40
2023/01/17 01:49:47;;;;;;;;;;;;;;;28.45;69.09;101244.97;5066834;28;70018;-40
2023/01/17 01:52:20;;;;;;;;;;;;;;;28.46;68.92;101245.81;5034773;28;65265;-40
2023/01/17 01:54:51;;;;;;;;;;;;;;;28.47;68.77;101250.16;5084920;27;69460;-39
2023/01/17 01:57:23;;;;;;;;;;;;;;;28.48;68.66;101244.59;5079970;27;65641;-40
2023/01/17 01:59:57;;;;;;;;;;;;;;;28.48;68.97;101241.06;5080755;27;70392;-39
2023/01/17 02:02:29;;;;;;;;;;;;;;;28.50;68.89;101250.63;5088312;27;65356;-40
2023/01/17 02:05:00;;;;;;;;;;;;;;;28.50;68.39;101237.16;5077515;27;70159;-39
2023/01/17 02:07:44;;;;;;;;;;;;;;;28.51;68.76;101238.81;5074641;27;65536;-38
2023/01/17 02:10:14;;;;;;;;;;;;;;;28.54;68.55;101236.75;5074983;27;69925;-40
2023/01/17 02:12:46;;;;;;;;;;;;;;;28.54;68.17;101240.28;5083441;27;65385;-39
2023/01/17 02:15:16;;;;;;;;;;;;;;;28.57;68.13;101245.28;5090675;27;69378;-40
2023/01/17 02:17:56;;;;;;;;;;;;;;;28.58;68.52;101243.41;5083091;27;66857;-42
2023/01/17 02:20:45;;;;;;;;;;;;;;;28.61;68.59;101251.09;5079338;27;69110;-39
2023/01/17 02:23:24;;;;;;;;;;;;;;;28.61;68.33;101237.63;5084809;27;66876;-39
2023/01/17 02:26:04;;;;;;;;;;;;;;;28.64;68.90;101242.63;5081283;27;69832;-38
2023/01/17 02:28:40;;;;;;;;;;;;;;;28.65;68.49;101250.53;5083611;27;65537;-39
2023/01/17 02:31:20;;;;;;;;;;;;;;;28.66;68.36;101246.78;5060183;27;69028;-41
2023/01/17 02:34:01;;;;;;;;;;;;;;;28.68;68.68;101243.91;5078452;27;66990;-40
2023/01/17 02:36:35;;;;;;;;;;;;;;;28.69;69.08;101242.88;5083263;27;70341;-39
2023/01/17 02:39:08;;;;;;;;;;;;;;;28.70;69.05;101241.84;5079003;27;65633;-40
2023/01/17 02:41:43;;;;;;;;;;;;;;;28.70;69.27;101236.44;5084140;27;70253;-39
2023/01/17 02:44:18;;;;;;;;;;;;;;;28.74;68.88;101249.34;5070199;27;66291;-40
2023/01/17 02:46:50;;;;;;;;;;;;;;;28.75;69.10;101244.78;5080759;27;70085;-38
2023/01/17 02:49:24;;;;;;;;;;;;;;;28.76;69.25;101232.13;5083957;27;66102;-40
2023/01/17 02:52:04;;;;;;;;;;;;;;;28.77;69.04;101234.63;5079100;27;69855;-40
2023/01/17 02:54:35;;;;;;;;;;;;;;;28.80;68.82;101246.88;5087296;27;66126;-41
2023/01/17 02:57:06;;;;;;;;;;;;;;;28.80;68.96;101236.09;5084265;27;69836;-39
2023/01/17 02:59:50;;;;;;;;;;;;;;;28.81;69.83;101233.22;5082606;27;66730;-38
2023/01/17 03:02:27;;;;;;;;;;;;;;;28.85;69.54;101230.94;5070857;27;69848;-39
2023/01/17 03:05:24;;;;;;;;;;;;;;;28.86;69.81;101228.06;5071646;28;66384;-39
2023/01/17 03:07:55;;;;;;;;;;;;;;;28.89;69.73;101229.50;5072077;27;70031;-38
2023/01/17 03:10:25;;;;;;;;;;;;;;;28.91;69.57;101225.56;5087828;27;66394;-40
2023/01/17 03:12:57;;;;;;;;;;;;;;;28.93;69.96;101226.22;5084337;27;70472;-41
2023/01/17 03:15:28;;;;;;;;;;;;;;;28.96;69.56;101225.81;5079028;27;66707;-39
2023/01/17 03:18:01;;;;;;;;;;;;;;;28.99;69.64;101221.88;5060494;27;70064;-39
2023/01/17 03:20:32;;;;;;;;;;;;;;;29.02;69.52;101223.34;5057411;28;65932;-38
2023/01/17 03:23:03;;;;;;;;;;;;;;;29.06;69.95;101211.13;5079102;27;69596;-43
2023/01/17 03:25:33;;;;;;;;;;;;;;;29.08;69.91;101215.28;5079934;27;66335;-41
2023/01/17 03:28:04;;;;;;;;;;;;;;;29.11;69.61;101216.75;5078271;27;70266;-38
2023/01/17 03:30:35;;;;;;;;;;;;;;;29.14;69.99;101205.56;5079078;27;66815;-39
2023/01/17 03:33:06;;;;;;;;;;;;;;;29.17;69.66;101205.19;5075882;27;68918;-38
2023/01/17 03:35:36;;;;;;;;;;;;;;;29.22;69.57;101208.09;5067082;27;65092;-41
2023/01/17 03:38:07;;;;;;;;;;;;;;;29.24;69.19;101206.03;5049156;27;68982;-37
2023/01/17 03:40:38;;;;;;;;;;;;;;;29.27;69.38;101202.09;5048707;27;66046;-39
2023/01/17 03:43:09;;;;;;;;;;;;;;;29.28;69.67;101201.91;5062155;27;70775;-38
2023/01/17 03:45:39;;;;;;;;;;;;;;;29.30;69.97;101204.38;5087047;27;66556;-38
2023/01/17 03:48:10;;;;;;;;;;;;;;;29.33;69.80;101199.41;5080965;27;70213;-38
2023/01/17 03:50:41;;;;;;;;;;;;;;;29.36;69.65;101192.75;5083444;27;66588;-37
2023/01/17 03:53:11;;;;;;;;;;;;;;;29.38;69.82;101186.13;5069692;27;71009;-39
2023/01/17 03:55:44;;;;;;;;;;;;;;;29.40;70.51;101189.47;5081125;27;65825;-37
2023/01/17 03:58:15;;;;;;;;;;;;;;;29.42;70.02;101177.59;5082241;27;69711;-37
2023/01/17 04:00:46;;;;;;;;;;;;;;;29.46;70.25;101187.00;5055296;27;66280;-39
2023/01/17 04:03:16;;;;;;;;;;;;;;;29.49;70.93;101181.19;5086865;27;69707;-38
2023/01/17 04:05:47;;;;;;;;;;;;;;;29.53;70.82;101169.75;5078358;27;66014;-38
2023/01/17 04:08:18;;;;;;;;;;;;;;;29.55;71.37;101164.13;5091474;27;69547;-39
2023/01/17 04:10:49;;;;;;;;;;;;;;;29.58;71.29;101164.53;5089700;27;65705;-40
2023/01/17 04:13:19;;;;;;;;;;;;;;;29.62;71.38;101155.00;5088569;27;69208;-39
2023/01/17 04:15:50;;;;;;;;;;;;;;;29.65;71.50;101147.56;5061451;27;65169;-37
2023/01/17 04:18:23;;;;;;;;;;;;;;;29.69;70.96;101146.94;5082729;27;70491;-38
2023/01/17 04:20:53;;;;;;;;;;;;;;;29.77;70.92;101145.91;5092237;27;65578;-40
2023/01/17 04:23:24;;;;;;;;;;;;;;;29.82;69.85;101144.25;5085144;27;70396;-39
2023/01/17 04:25:54;;;;;;;;;;;;;;;29.89;69.70;101138.81;5083175;27;65880;-39
2023/01/17 04:28:25;;;;;;;;;;;;;;;29.94;69.28;101130.09;5083803;27;69738;-39
2023/01/17 04:30:59;;;;;;;;;;;;;;;29.98;68.37;101131.38;5090132;27;64865;-39
2023/01/17 04:33:29;;;;;;;;;;;;;;;30.01;68.39;101120.94;5085903;27;69203;-38
2023/01/17 04:36:00;;;;;;;;;;;;;;;30.07;67.62;101108.47;5082261;27;66990;-39
2023/01/17 04:38:31;;;;;;;;;;;;;;;30.08;67.45;101099.28;5079673;27;69400;-40
2023/01/17 04:41:01;;;;;;;;;;;;;;;30.12;67.41;101105.97;5068612;27;65991;-41
2023/01/17 04:43:33;;;;;;;;;;;;;;;30.17;67.44;101092.66;5064200;28;69915;-42
2023/01/17 04:46:08;;;;;;;;;;;;;;;30.21;67.25;101085.75;5048497;27;65579;-40
2023/01/17 04:48:39;;;;;;;;;;;;;;;30.24;66.64;101079.13;5079120;27;70012;-38
2023/01/17 04:51:09;;;;;;;;;;;;;;;30.27;66.72;101078.69;5083661;27;66796;-40
2023/01/17 04:53:41;;;;;;;;;;;;;;;30.28;66.47;101078.50;5082070;27;70865;-40
2023/01/17 04:56:11;;;;;;;;;;;;;;;30.33;66.06;101068.91;5086471;27;66074;-39
2023/01/17 04:58:42;;;;;;;;;;;;;;;30.35;66.05;101061.41;5079286;27;70492;-40
2023/01/17 05:01:13;;;;;;;;;;;;;;;30.25;65.14;101067.25;5088748;27;66806;-38
2023/01/17 05:03:44;;;;;;;;;;;;;;;30.11;65.73;101055.59;5084083;27;70282;-40
2023/01/17 05:06:15;;;;;;;;;;;;;;;29.83;62.72;101053.94;5080380;27;66571;-38
2023/01/17 05:08:46;;;;;;;;;;;;;;;29.62;61.02;101040.63;5084612;27;70663;-39
2023/01/17 05:11:16;;;;;;;;;;;;;;;29.43;60.49;101036.88;5077832;27;66298;-42
2023/01/17 05:13:48;;;;;;;;;;;;;;;29.33;59.51;101037.28;5081217;27;70691;-44
2023/01/17 05:16:19;;;;;;;;;;;;;;;29.24;59.30;101033.13;5042884;28;66099;-39
2023/01/17 05:18:51;;;;;;;;;;;;;;;29.20;58.54;101031.88;5077232;27;69728;-41
2023/01/17 05:21:23;;;;;;;;;;;;;;;29.33;58.14;101026.47;5053970;28;65612;-40
2023/01/17 05:23:53;;;;;;;;;;;;;;;29.37;57.49;101025.03;5083391;27;69809;-40
2023/01/17 05:26:24;;;;;;;;;;;;;;;29.35;56.63;101019.00;5077300;27;65458;-39
2023/01/17 05:28:54;;;;;;;;;;;;;;;29.32;55.75;101016.72;5060372;28;69914;-43
2023/01/17 05:31:25;;;;;;;;;;;;;;;29.32;54.81;101013.19;5082923;27;65836;-39
2023/01/17 05:33:56;;;;;;;;;;;;;;;29.27;53.33;101005.69;5061881;27;70778;-41
2023/01/17 05:36:27;;;;;;;;;;;;;;;29.26;52.49;101004.03;5081851;27;66000;-42
2023/01/17 05:38:58;;;;;;;;;;;;;;;29.23;51.99;100996.34;5072322;28;69374;-41
2023/01/17 05:41:28;;;;;;;;;;;;;;;29.18;51.60;100990.72;5075574;27;66683;-39
2023/01/17 05:43:59;;;;;;;;;;;;;;;29.12;50.96;100975.34;5052064;28;69845;-39
2023/01/17 05:46:30;;;;;;;;;;;;;;;29.12;49.82;100975.34;5084235;27;66091;-40
2023/01/17 05:49:00;;;;;;;;;;;;;;;29.06;49.95;100976.16;5089226;27;70132;-42
2023/01/17 05:51:31;;;;;;;;;;;;;;;29.03;49.44;100968.41;5029404;28;65747;-38
2023/01/17 05:54:02;;;;;;;;;;;;;;;28.98;48.64;100960.13;5084054;27;69888;-38
2023/01/17 05:56:33;;;;;;;;;;;;;;;28.93;47.79;100953.47;5069040;27;66386;-38
2023/01/17 05:59:04;;;;;;;;;;;;;;;28.88;47.54;100950.53;5081200;27;69798;-40
2023/01/17 06:01:34;;;;;;;;;;;;;;;28.83;46.70;100939.53;5080695;27;66329;-38
2023/01/17 06:04:05;;;;;;;;;;;;;;;28.80;46.63;100934.53;5089003;27;69699;-40
2023/01/17 06:06:36;;;;;;;;;;;;;;;28.82;46.53;100920.84;5068060;28;66012;-41
2023/01/17 06:09:06;;;;;;;;;;;;;;;28.74;45.69;100924.56;5050454;27;69352;-38
2023/01/17 06:11:38;;;;;;;;;;;;;;;28.74;45.24;100913.75;5084472;27;66453;-38
2023/01/17 06:14:08;;;;;;;;;;;;;;;28.71;45.37;100911.47;5081640;27;70256;-39
2023/01/17 06:16:39;;;;;;;;;;;;;;;28.67;44.80;100905.66;5084601;27;66649;-39
2023/01/17 06:19:09;;;;;;;;;;;;;;;28.67;44.37;100891.34;5079194;27;70557;-38
2023/01/17 06:21:40;;;;;;;;;;;;;;;28.69;44.27;100886.56;5088025;27;66206;-38
2023/01/17 06:24:11;;;;;;;;;;;;;;;28.71;44.63;100881.78;5062673;27;69465;-38
2023/01/17 06:26:45;;;;;;;;;;;;;;;28.69;44.89;100883.84;5063269;28;67552;-39
2023/01/17 06:29:15;;;;;;;;;;;;;;;28.71;44.92;100876.38;5078843;27;69744;-38
2023/01/17 06:31:46;;;;;;;;;;;;;;;28.70;44.61;100872.84;5079246;27;66353;-39
2023/01/17 06:34:17;;;;;;;;;;;;;;;28.71;44.26;100868.28;5080144;27;71024;-40
2023/01/17 06:36:48;;;;;;;;;;;;;;;28.67;43.81;100867.88;5047678;28;66379;-39
2023/01/17 06:39:18;;;;;;;;;;;;;;;28.68;43.99;100868.69;5081012;27;70015;-41
2023/01/17 06:41:49;;;;;;;;;;;;;;;28.68;43.62;100869.53;5076540;27;67080;-38
2023/01/17 06:44:20;;;;;;;;;;;;;;;28.66;43.23;100873.47;5065854;27;70298;-40
2023/01/17 06:46:50;;;;;;;;;;;;;;;28.70;43.34;100858.53;5059322;27;66623;-39
2023/01/17 06:49:22;;;;;;;;;;;;;;;28.71;42.97;100855.63;5042263;28;70507;-39
2023/01/17 06:51:52;;;;;;;;;;;;;;;28.66;43.12;100854.56;5074453;27;66381;-38
2023/01/17 06:54:23;;;;;;;;;;;;;;;28.66;43.18;100857.28;5076990;27;69558;-39
2023/01/17 06:56:54;;;;;;;;;;;;;;;28.69;42.75;100854.16;5071767;27;65598;-38
2023/01/17 06:59:26;;;;;;;;;;;;;;;28.70;42.49;100843.16;5072627;27;70235;-42
2023/01/17 07:01:57;;;;;;;;;;;;;;;28.68;41.88;100839.00;5041669;27;66181;-39
2023/01/17 07:04:27;;;;;;;;;;;;;;;28.67;41.82;100827.38;5073474;27;70272;-39
2023/01/17 07:06:58;;;;;;;;;;;;;;;28.66;41.26;100825.72;5052315;28;67781;-39
2023/01/17 07:09:30;;;;;;;;;;;;;;;28.63;41.33;100831.53;5075253;27;70070;-39
2023/01/17 07:12:01;;;;;;;;;;;;;;;28.67;41.21;100826.56;5074333;27;65678;-39
2023/01/17 07:14:31;;;;;;;;;;;;;;;28.65;41.41;100828.63;5060992;27;70609;-42
2023/01/17 07:17:03;;;;;;;;;;;;;;;28.66;41.19;100824.88;5080395;27;65776;-40
2023/01/17 07:19:34;;;;;;;;;;;;;;;28.65;40.90;100836.72;5081687;27;69864;-41
2023/01/17 07:22:09;;;;;;;;;;;;;;;28.69;41.10;100835.25;5087814;27;66717;-40
2023/01/17 07:24:40;;;;;;;;;;;;;;;28.64;41.71;100833.22;5070002;27;69810;-38
2023/01/17 07:27:10;;;;;;;;;;;;;;;28.72;41.33;100837.53;5062414;27;66430;-39
2023/01/17 07:29:41;;;;;;;;;;;;;;;28.74;41.86;100840.88;5080195;27;70081;-39
2023/01/17 07:32:12;;;;;;;;;;;;;;;28.77;41.56;100837.75;5076126;27;65412;-39
2023/01/17 07:34:42;;;;;;;;;;;;;;;28.76;42.09;100832.59;5079969;27;70342;-38
2023/01/17 07:37:13;;;;;;;;;;;;;;;28.72;41.43;100824.91;5078046;27;66426;-39
2023/01/17 07:39:43;;;;;;;;;;;;;;;28.76;40.78;100833.41;5064989;28;70414;-39
2023/01/17 07:42:14;;;;;;;;;;;;;;;28.73;40.67;100821.16;5074141;28;65762;-40
2023/01/17 07:44:45;;;;;;;;;;;;;;;28.76;42.05;100833.41;5061640;27;69982;-37
2023/01/17 07:47:16;;;;;;;;;;;;;;;28.77;42.47;100829.66;5075836;27;65999;-38
2023/01/17 07:49:46;;;;;;;;;;;;;;;28.79;42.57;100824.91;5074211;27;69710;-39
2023/01/17 07:52:18;;;;;;;;;;;;;;;28.84;43.14;100827.81;5073388;27;66581;-39
2023/01/17 07:54:48;;;;;;;;;;;;;;;28.98;44.29;100833.22;5077789;28;70171;-37
2023/01/17 07:57:19;;;;;;;;;;;;;;;29.05;44.52;100824.06;5075206;27;66142;-39
2023/01/17 07:59:51;;;;;;;;;;;;;;;29.08;44.79;100814.72;5078545;27;69264;-39
2023/01/17 08:02:22;;;;;;;;;;;;;;;29.14;45.00;100813.88;5081867;27;66511;-41
2023/01/17 08:04:52;;;;;;;;;;;;;;;29.18;44.52;100815.13;5077640;27;70209;-40
2023/01/17 08:07:23;;;;;;;;;;;;;;;29.25;44.86;100813.22;5064496;28;65912;-39
2023/01/17 08:09:54;;;;;;;;;;;;;;;29.29;44.22;100811.78;5076364;27;70483;-39
2023/01/17 08:12:24;;;;;;;;;;;;;;;29.33;44.36;100817.59;5082391;27;66682;-39
2023/01/17 08:14:55;;;;;;;;;;;;;;;29.32;44.08;100803.25;5079423;27;70337;-40
2023/01/17 08:17:27;;;;;;;;;;;;;;;29.38;43.61;100815.91;5080344;27;67260;-38
2023/01/17 08:19:59;;;;;;;;;;;;;;;29.42;44.10;100812.78;5078392;27;70590;-41
2023/01/17 08:22:30;;;;;;;;;;;;;;;29.40;43.88;100811.13;5085569;27;66737;-39
2023/01/17 08:25:00;;;;;;;;;;;;;;;29.47;43.32;100815.69;5075661;27;70297;-39
2023/01/17 08:27:31;;;;;;;;;;;;;;;29.46;43.64;100808.63;5081378;27;66745;-39
2023/01/17 08:30:04;;;;;;;;;;;;;;;29.46;43.09;100804.06;5091368;27;70872;-40
2023/01/17 08:32:39;;;;;;;;;;;;;;;29.50;43.54;100804.44;5078323;27;66485;-42
2023/01/17 08:35:10;;;;;;;;;;;;;;;29.53;43.49;100809.44;5064588;28;69919;-40
2023/01/17 08:37:41;;;;;;;;;;;;;;;29.56;43.01;100803.59;5081172;27;65964;-39
2023/01/17 08:40:11;;;;;;;;;;;;;;;29.53;42.83;100804.03;5089881;27;69281;-39
2023/01/17 08:42:43;;;;;;;;;;;;;;;29.57;42.95;100799.88;5078045;27;68049;-40
2023/01/17 08:45:14;;;;;;;;;;;;;;;29.61;42.93;100809.19;5085985;27;70852;-40
2023/01/17 08:47:44;;;;;;;;;;;;;;;29.59;42.74;100808.59;5077760;27;66382;-40
2023/01/17 08:50:19;;;;;;;;;;;;;;;29.64;43.19;100816.91;5088485;27;70810;-39
2023/01/17 08:52:52;;;;;;;;;;;;;;;29.62;42.59;100821.69;5075820;27;65940;-40
2023/01/17 08:55:22;;;;;;;;;;;;;;;29.61;42.43;100822.69;5078992;27;70193;-41
2023/01/17 08:57:53;;;;;;;;;;;;;;;29.66;42.71;100828.34;5078473;27;66713;-41
2023/01/17 09:00:24;;;;;;;;;;;;;;;29.63;42.13;100820.66;5083962;27;69148;-41
2023/01/17 09:02:55;;;;;;;;;;;;;;;29.67;42.54;100815.66;5060777;27;65549;-41
2023/01/17 09:05:26;;;;;;;;;;;;;;;29.68;42.58;100818.16;5078800;27;70780;-42
2023/01/17 09:07:56;;;;;;;;;;;;;;;29.72;41.98;100824.78;5078878;27;66209;-40
2023/01/17 09:10:27;;;;;;;;;;;;;;;29.70;42.03;100817.91;5077024;27;69717;-41
2023/01/17 09:12:58;;;;;;;;;;;;;;;29.73;42.25;100818.34;5081510;27;66500;-41
2023/01/17 09:15:29;;;;;;;;;;;;;;;29.73;42.50;100823.75;5077052;27;69340;-40
2023/01/17 09:18:00;;;;;;;;;;;;;;;29.73;42.31;100831.03;5079884;27;65892;-40
2023/01/17 09:20:31;;;;;;;;;;;;;;;29.72;42.15;100841.00;5074977;27;70503;-39
2023/01/17 09:23:03;;;;;;;;;;;;;;;29.77;41.67;100838.50;5080910;27;66547;-39
2023/01/17 09:25:33;;;;;;;;;;;;;;;29.76;41.77;100847.66;5079232;27;71130;-41
2023/01/17 09:28:04;;;;;;;;;;;;;;;29.74;42.60;100844.31;5062682;27;65603;-40
2023/01/17 09:30:35;;;;;;;;;;;;;;;29.78;41.41;100842.00;5055988;28;70107;-40
2023/01/17 09:33:05;;;;;;;;;;;;;;;29.78;41.65;100839.31;5060620;27;66237;-41
2023/01/17 09:35:36;;;;;;;;;;;;;;;29.71;41.07;100850.16;5059788;27;69195;-39
2023/01/17 09:38:07;;;;;;;;;;;;;;;29.73;41.22;100853.50;5078059;27;66479;-41
2023/01/17 09:40:42;;;;;;;;;;;;;;;29.68;40.96;100861.41;5081634;27;68466;-41
2023/01/17 09:43:51;;;;;;;;;;;;;;;29.69;40.87;100862.22;5081611;27;67185;-39
2023/01/17 09:46:24;;;;;;;;;;;;;;;29.62;40.87;100867.63;4990162;28;69985;-40
2023/01/17 09:49:01;;;;;;;;;;;;;;;29.53;40.05;100868.88;4993535;28;65214;-39
2023/01/17 09:51:34;;;;;;;;;;;;;;;29.58;40.17;100877.19;5043541;27;69857;-39
2023/01/17 09:54:04;;;;;;;;;;;;;;;29.54;39.76;100878.66;5080150;27;67452;-41
2023/01/17 09:56:39;;;;;;;;;;;;;;;29.58;39.85;100882.59;5061445;27;71573;-38
2023/01/17 09:59:39;;;;;;;;;;;;;;;29.58;41.04;100921.25;5060429;27;66041;-39
2023/01/17 10:02:16;;;;;;;;;;;;;;;29.94;42.63;100894.81;5029818;27;69906;-39
2023/01/17 10:04:56;;;;;;;;;;;;;;;30.21;45.98;100893.66;5063477;27;66563;-39
2023/01/17 10:07:33;;;;;;;;;;;;;;;30.43;49.74;100902.31;5075547;27;70236;-37
2023/01/17 10:10:09;;;;;;;;;;;;;;;30.62;52.63;100905.94;5074490;27;67069;-38
2023/01/17 10:12:40;;;;;;;;;;;;;;;30.78;54.47;100907.28;5079200;27;69166;-40
2023/01/17 10:15:13;;;;;;;;;;;;;;;30.89;57.46;100911.19;5084750;27;66321;-39
2023/01/17 10:18:03;;;;;;;;;;;;;;;30.95;60.16;100921.16;5089124;27;70010;-38
2023/01/17 10:20:42;;;;;;;;;;;;;;;31.03;59.74;100929.00;5075729;27;66086;-41
2023/01/17 10:23:24;;;;;;;;;;;;;;;31.08;60.82;100929.19;5090290;27;70327;-38
2023/01/17 10:25:57;;;;;;;;;;;;;;;31.15;60.36;100937.28;5088802;27;66475;-39
2023/01/17 10:28:34;;;;;;;;;;;;;;;31.20;60.66;100944.72;5087447;27;69841;-39
2023/01/17 10:31:09;;;;;;;;;;;;;;;31.21;61.36;100940.97;5078187;27;66781;-38
2023/01/17 10:33:47;;;;;;;;;;;;;;;31.22;61.35;100954.28;5084427;27;69953;-42
2023/01/17 10:36:20;;;;;;;;;;;;;;;31.26;60.78;100950.09;5078641;27;65087;-39
2023/01/17 10:38:54;;;;;;;;;;;;;;;31.27;60.74;100951.75;5081198;27;69403;-40
2023/01/17 10:41:34;;;;;;;;;;;;;;;31.29;60.80;100959.69;5079960;27;66219;-40
2023/01/17 10:44:11;;;;;;;;;;;;;;;31.27;61.10;100962.59;5081614;27;70536;-40
2023/01/17 10:46:47;;;;;;;;;;;;;;;31.27;60.94;100972.63;5083637;27;66101;-39
2023/01/17 10:49:19;;;;;;;;;;;;;;;31.26;61.25;100971.78;5084392;27;70130;-40
2023/01/17 10:52:07;;;;;;;;;;;;;;;31.26;61.12;100976.34;5069598;27;65179;-40
2023/01/17 10:55:02;;;;;;;;;;;;;;;30.53;61.12;100857.69;5085719;27;70767;-39
2023/01/17 10:57:43;;;;;;;;;;;;;;;31.25;61.21;100974.69;5072002;27;65605;-39
2023/01/17 11:00:24;;;;;;;;;;;;;;;31.24;61.43;100984.72;5085795;27;71269;-40
2023/01/17 11:02:55;;;;;;;;;;;;;;;31.24;61.24;100983.91;5085146;27;65407;-39
2023/01/17 11:05:28;;;;;;;;;;;;;;;31.22;61.03;100989.53;5076768;27;70396;-40
2023/01/17 11:08:04;;;;;;;;;;;;;;;31.23;61.05;100993.06;5075426;27;66880;-41
2023/01/17 11:10:35;;;;;;;;;;;;;;;31.21;60.99;101000.59;5070235;27;69894;-43
2023/01/17 11:13:18;;;;;;;;;;;;;;;31.21;60.98;100996.00;5060340;28;66642;-40
2023/01/17 11:15:50;;;;;;;;;;;;;;;31.20;61.13;100998.91;5050566;27;70670;-39
2023/01/17 11:18:22;;;;;;;;;;;;;;;31.17;61.36;101000.19;5075558;27;66477;-40
2023/01/17 11:21:08;;;;;;;;;;;;;;;31.16;60.90;101003.97;5076430;27;69124;-43
2023/01/17 11:23:41;;;;;;;;;;;;;;;31.15;61.13;101002.31;5054577;28;65041;-41
2023/01/17 11:26:20;;;;;;;;;;;;;;;31.14;61.04;100997.91;5071953;27;69493;-42
2023/01/17 11:28:51;;;;;;;;;;;;;;;31.12;61.38;100995.44;5059687;27;65398;-44
2023/01/17 11:31:24;;;;;;;;;;;;;;;31.11;61.18;101001.06;5031829;28;69979;-43
2023/01/17 11:34:13;;;;;;;;;;;;;;;31.10;61.36;101011.09;5076092;27;66210;-44
2023/01/17 11:36:45;;;;;;;;;;;;;;;31.09;60.84;101009.44;5035552;28;69844;-42
2023/01/17 11:39:19;;;;;;;;;;;;;;;31.07;60.88;101014.22;5056949;27;65794;-45
2023/01/17 11:41:51;;;;;;;;;;;;;;;31.05;61.20;101019.03;5069138;27;69831;-43
2023/01/17 11:44:27;;;;;;;;;;;;;;;31.05;61.29;101021.75;5039923;27;65489;-41
2023/01/17 11:47:13;;;;;;;;;;;;;;;31.04;61.15;101021.97;5072040;27;70047;-40
2023/01/17 11:49:45;;;;;;;;;;;;;;;31.03;61.23;101020.28;5061264;27;66387;-41
2023/01/17 11:52:24;;;;;;;;;;;;;;;31.00;61.48;101024.28;5074251;27;70311;-39
2023/01/17 11:54:55;;;;;;;;;;;;;;;30.99;61.31;101025.31;5057133;28;66988;-40
2023/01/17 11:57:30;;;;;;;;;;;;;;;31.00;61.52;101037.81;5082975;27;69802;-39
2023/01/17 12:00:40;;;;;;;;;;;;;;;30.98;60.87;101034.50;5053286;27;65305;-40
2023/01/17 12:03:29;;;;;;;;;;;;;;;30.97;61.32;101027.41;4985655;28;70354;-40
2023/01/17 12:06:16;;;;;;;;;;;;;;;30.95;61.77;101045.75;4965716;28;66271;-40
2023/01/17 12:08:50;;;;;;;;;;;;;;;30.93;61.23;101053.28;5046086;27;69280;-41
2023/01/17 12:11:31;;;;;;;;;;;;;;;30.93;61.22;101059.53;5074530;27;66650;-43
2023/01/17 12:14:05;;;;;;;;;;;;;;;30.92;61.47;101062.44;5042935;28;70558;-41
2023/01/17 12:16:42;;;;;;;;;;;;;;;30.92;61.66;101062.44;5064826;28;66232;-39
2023/01/17 12:19:31;;;;;;;;;;;;;;;30.90;61.55;101064.56;5073947;27;70335;-41
2023/01/17 12:22:15;;;;;;;;;;;;;;;30.89;61.91;101074.53;5055027;27;66099;-40
2023/01/17 12:25:05;;;;;;;;;;;;;;;30.88;62.96;101074.78;5060520;27;69743;-41
2023/01/17 12:27:51;;;;;;;;;;;;;;;30.88;62.20;101072.06;5061688;28;66488;-41
2023/01/17 12:30:22;;;;;;;;;;;;;;;30.88;62.24;101077.47;5081128;27;69896;-42
2023/01/17 12:33:11;;;;;;;;;;;;;;;30.88;62.40;101078.31;5054414;27;65911;-41
2023/01/17 12:35:49;;;;;;;;;;;;;;;30.91;62.35;101086.00;5077163;27;70767;-41
2023/01/17 12:38:35;;;;;;;;;;;;;;;30.91;62.54;101087.88;5067599;27;65782;-41
2023/01/17 12:41:16;;;;;;;;;;;;;;;30.89;62.78;101085.38;5049231;28;69933;-41
2023/01/17 12:43:46;;;;;;;;;;;;;;;30.90;62.42;101091.66;5074942;27;66211;-42
2023/01/17 12:46:25;;;;;;;;;;;;;;;30.87;62.67;101098.31;5080321;27;70716;-42
2023/01/17 12:49:11;;;;;;;;;;;;;;;30.85;62.77;101111.25;5083685;27;65905;-41
2023/01/17 12:51:43;;;;;;;;;;;;;;;30.82;62.10;101108.16;5078452;27;70651;-41
2023/01/17 12:54:15;;;;;;;;;;;;;;;30.81;62.07;101120.00;5080024;27;66638;-41
2023/01/17 12:56:55;;;;;;;;;;;;;;;30.79;62.71;101122.09;5060879;28;70450;-41
2023/01/17 12:59:32;;;;;;;;;;;;;;;30.77;62.31;101125.00;5081389;27;66235;-44
2023/01/17 13:02:12;;;;;;;;;;;;;;;30.75;62.70;101127.06;5077155;27;70650;-43
2023/01/17 13:05:02;;;;;;;;;;;;;;;30.73;62.22;101134.59;5080156;27;66315;-42
2023/01/17 13:07:39;;;;;;;;;;;;;;;30.71;62.34;101142.94;5073496;27;70472;-41
2023/01/17 13:10:36;;;;;;;;;;;;;;;30.71;62.58;101153.75;5075310;27;66178;-41
2023/01/17 13:13:34;;;;;;;;;;;;;;;30.68;62.35;101156.91;5074538;27;69505;-44
2023/01/17 13:16:15;;;;;;;;;;;;;;;30.63;63.26;101150.44;5058248;28;66960;-41
2023/01/17 13:18:47;;;;;;;;;;;;;;;30.46;64.62;101166.31;5075217;27;69970;-38
2023/01/17 13:21:26;;;;;;;;;;;;;;;30.38;65.22;101163.81;5050790;27;66191;-44
2023/01/17 13:24:06;;;;;;;;;;;;;;;30.28;66.01;101164.25;5078788;27;70257;-38
2023/01/17 13:26:43;;;;;;;;;;;;;;;30.21;66.25;101158.81;5077001;28;66695;-40
2023/01/17 13:29:29;;;;;;;;;;;;;;;30.16;66.72;101166.72;5077168;27;70595;-39
2023/01/17 13:32:05;;;;;;;;;;;;;;;30.14;66.67;101168.78;5048730;27;66998;-44
2023/01/17 13:34:52;;;;;;;;;;;;;;;30.13;67.43;101172.56;5080693;27;70256;-42
2023/01/17 13:37:33;;;;;;;;;;;;;;;30.13;67.16;101182.53;5079071;27;66601;-42
2023/01/17 13:40:03;;;;;;;;;;;;;;;30.16;67.46;101188.38;5078873;27;69826;-41
2023/01/17 13:42:37;;;;;;;;;;;;;;;30.17;67.31;101192.75;5080373;27;66315;-40
2023/01/17 13:45:08;;;;;;;;;;;;;;;30.15;67.59;101197.53;5080793;27;70505;-43
2023/01/17 13:47:40;;;;;;;;;;;;;;;30.15;67.67;101196.69;5067429;27;65417;-40
2023/01/17 13:50:28;;;;;;;;;;;;;;;30.14;67.78;101205.84;5083338;27;71620;-44
2023/01/17 13:52:59;;;;;;;;;;;;;;;30.16;68.43;101201.88;5085087;27;65383;-38
2023/01/17 13:55:46;;;;;;;;;;;;;;;30.14;68.44;101203.97;5061531;27;70178;-41
2023/01/17 13:58:49;;;;;;;;;;;;;;;30.16;69.05;101210.00;5082849;27;67067;-39
2023/01/17 14:01:41;;;;;;;;;;;;;;;30.17;69.46;101206.28;5082196;27;69802;-38
2023/01/17 14:04:13;;;;;;;;;;;;;;;30.18;69.40;101207.94;5071915;27;66378;-39
2023/01/17 14:06:47;;;;;;;;;;;;;;;30.19;70.27;101204.19;5081515;27;70602;-40
2023/01/17 14:09:38;;;;;;;;;;;;;;;30.19;69.72;101204.19;5078415;27;66611;-38
2023/01/17 14:12:08;;;;;;;;;;;;;;;30.19;70.54;101204.19;5059983;28;69918;-39
2023/01/17 14:14:39;;;;;;;;;;;;;;;29.97;67.83;101194.59;5083163;27;67009;-39
2023/01/17 14:17:16;;;;;;;;;;;;;;;29.73;65.39;101199.56;5080726;27;70347;-39
2023/01/17 14:19:48;;;;;;;;;;;;;;;29.48;61.79;101195.72;5081135;27;66986;-39
2023/01/17 14:22:18;;;;;;;;;;;;;;;29.29;59.64;101203.56;5059550;28;69912;-39
2023/01/17 14:25:11;;;;;;;;;;;;;;;29.10;57.53;101201.59;5080771;27;66518;-42
2023/01/17 14:27:41;;;;;;;;;;;;;;;28.78;55.75;101185.00;5078738;27;70759;-42
2023/01/17 14:30:18;;;;;;;;;;;;;;;28.76;54.13;101203.25;5069217;27;66638;-38
2023/01/17 14:33:01;;;;;;;;;;;;;;;28.64;53.23;101205.69;5073959;27;69850;-40
2023/01/17 14:35:50;;;;;;;;;;;;;;;28.48;51.76;101209.50;5061626;28;66259;-38